»·PEaware :: N360BG KASE-KSBD

N360BG :: KASE-KSBD

FLIGHT INFORMATION

Flight Status: Arrived
Operator: Privately registered:
United States
More flights under this callsign
Pilot: Brandon G. (13)
Aircraft: BOEING 757-200
(B752)
More flights by this aircraft type
Origin: KASE Aspen-Pitkin Co/Sardy
United States
Destination: KSBD San Bernardino Intl
United States
More flights between these airports :: More routes between these airports
Route: +PITKN4 JNC HVE J60 HEC ZIGGY6
File this flight plan on PilotEdge
Remarks:
Altitude:
(Current/Filed)
40,000ft
Speed:
(Current/Filed)
425kts
Departed: 12-Sep-17 03:31 PM
Arrived: 12-Sep-17 05:07 PM
Distance/Time
Traveled:
586nm/1:36
Distance/Time
To Go:
Arrived

Flight Plot

Page will automatically refresh every two minutes.

Flight plan parsing failed; only flown route is shown


Map Options




Map Legend


Flown Route
Filed Route
Departure Airport
Arrival Airport
Navaid (VOR, NDB)
Fix

Horizontal Profiles

Position Reports

Time Latitude Longitude Heading Altitude Ground
Speed
12-Sep-17 15:24 39.223321 -106.866259 251 7749ft 0kts
12-Sep-17 15:25 39.223321 -106.866259 251 7749ft 0kts
12-Sep-17 15:26 39.223321 -106.866259 251 7749ft 0kts
12-Sep-17 15:27 39.223321 -106.866259 251 7749ft 0kts
12-Sep-17 15:28 39.223321 -106.866259 251 7749ft 0kts
12-Sep-17 15:29 39.223245 -106.866565 251 7749ft 0kts
12-Sep-17 15:30 39.222815 -106.867263 194 7751ft 5kts
12-Sep-17 15:31 39.221613 -106.866911 159 7760ft 7kts
12-Sep-17 15:32 39.217981 -106.865221 160 7789ft 21kts
12-Sep-17 15:33 39.215276 -106.863936 171 7808ft 0kts
12-Sep-17 15:34 39.214864 -106.864160 225 7811ft 5kts
12-Sep-17 15:35 39.234124 -106.874177 341 8295ft 168kts
12-Sep-17 15:36 39.283119 -106.891804 316 9981ft 237kts
12-Sep-17 15:37 39.312403 -106.966654 295 11661ft 325kts
12-Sep-17 15:38 39.363301 -107.100142 296 15923ft 374kts
12-Sep-17 15:39 39.370545 -107.231588 257 19717ft 393kts
12-Sep-17 15:40 39.348347 -107.346829 256 22359ft 409kts
12-Sep-17 15:41 39.322148 -107.491461 256 25220ft 424kts
12-Sep-17 15:42 39.292972 -107.640739 256 27700ft 439kts
12-Sep-17 15:43 39.262176 -107.792961 255 29804ft 455kts
12-Sep-17 15:44 39.230985 -107.947294 256 31916ft 461kts
12-Sep-17 15:45 39.199892 -108.104748 256 34605ft 450kts
12-Sep-17 15:46 39.168748 -108.258394 256 36869ft 444kts
12-Sep-17 15:47 39.137565 -108.410718 256 38750ft 441kts
12-Sep-17 15:48 39.106116 -108.563144 256 40098ft 444kts
12-Sep-17 15:49 39.075535 -108.710256 255 40092ft 442kts
12-Sep-17 15:50 39.036063 -108.858731 248 40095ft 442kts
12-Sep-17 15:51 38.989096 -109.003809 248 40091ft 442kts
12-Sep-17 15:52 38.941471 -109.148719 248 40091ft 442kts
12-Sep-17 15:53 38.894265 -109.289111 247 40044ft 440kts
12-Sep-17 15:54 38.845926 -109.433174 248 40043ft 440kts
12-Sep-17 15:55 38.797914 -109.576642 248 40043ft 440kts
12-Sep-17 15:56 38.750499 -109.717800 247 40046ft 440kts
12-Sep-17 15:57 38.701532 -109.860647 247 40046ft 440kts
12-Sep-17 15:58 38.652770 -110.003091 247 40045ft 440kts
12-Sep-17 15:59 38.604118 -110.145624 247 40045ft 440kts
12-Sep-17 16:00 38.555230 -110.288335 247 40075ft 437kts
12-Sep-17 16:01 38.506610 -110.429578 247 40116ft 438kts
12-Sep-17 16:02 38.457747 -110.570846 247 40115ft 438kts
12-Sep-17 16:03 38.409094 -110.707210 242 40120ft 438kts
12-Sep-17 16:04 38.350259 -110.840879 241 40119ft 435kts
12-Sep-17 16:05 38.290962 -110.974102 241 40121ft 432kts
12-Sep-17 16:06 38.232514 -111.104835 241 40117ft 429kts
12-Sep-17 16:07 38.174090 -111.234985 241 40116ft 429kts
12-Sep-17 16:08 38.115660 -111.364641 240 40107ft 428kts
12-Sep-17 16:09 38.055929 -111.496615 240 40162ft 435kts
12-Sep-17 16:10 37.995906 -111.628694 240 40313ft 434kts
12-Sep-17 16:11 37.936618 -111.758616 240 40320ft 434kts
12-Sep-17 16:12 37.877194 -111.888346 240 40322ft 433kts
12-Sep-17 16:13 37.816874 -112.019474 240 40321ft 433kts
12-Sep-17 16:14 37.756363 -112.150495 240 40320ft 434kts
12-Sep-17 16:15 37.696042 -112.280589 239 40321ft 431kts
12-Sep-17 16:16 37.624318 -112.401863 232 40318ft 432kts
12-Sep-17 16:17 37.549766 -112.519806 232 40317ft 432kts
12-Sep-17 16:18 37.474796 -112.636863 232 40315ft 432kts
12-Sep-17 16:19 37.400809 -112.751790 231 40163ft 431kts
12-Sep-17 16:20 37.325503 -112.867573 230 40165ft 430kts
12-Sep-17 16:21 37.250048 -112.982762 231 40164ft 429kts
12-Sep-17 16:22 37.174576 -113.098530 231 40163ft 430kts
12-Sep-17 16:23 37.099329 -113.213565 231 40161ft 430kts
12-Sep-17 16:24 37.023919 -113.328791 231 40010ft 427kts
12-Sep-17 16:25 36.949597 -113.443203 231 39975ft 427kts
12-Sep-17 16:26 36.875658 -113.554332 230 39980ft 427kts
12-Sep-17 16:27 36.800372 -113.665942 230 39983ft 427kts
12-Sep-17 16:28 36.724942 -113.779138 231 39984ft 425kts
12-Sep-17 16:29 36.650636 -113.893256 231 39983ft 426kts
12-Sep-17 16:30 36.575742 -114.006486 231 39981ft 426kts
12-Sep-17 16:31 36.500247 -114.119209 231 39981ft 426kts
12-Sep-17 16:32 36.423901 -114.231037 230 39874ft 425kts
12-Sep-17 16:33 36.348265 -114.342371 230 39876ft 425kts
12-Sep-17 16:34 36.271853 -114.453534 230 39876ft 425kts
12-Sep-17 16:35 36.195803 -114.565097 231 39911ft 425kts
12-Sep-17 16:36 36.121595 -114.673837 230 39918ft 425kts
12-Sep-17 16:37 36.045389 -114.785176 230 39916ft 424kts
12-Sep-17 16:38 35.969032 -114.895308 230 39915ft 424kts
12-Sep-17 16:39 35.892284 -115.002270 229 39917ft 424kts
12-Sep-17 16:40 35.813195 -115.108832 228 39947ft 425kts
12-Sep-17 16:41 35.734472 -115.216259 229 39944ft 425kts
12-Sep-17 16:42 35.655342 -115.323526 229 39943ft 424kts
12-Sep-17 16:43 35.575518 -115.429605 229 39941ft 425kts
12-Sep-17 16:44 35.496602 -115.536410 229 39941ft 424kts
12-Sep-17 16:45 35.418419 -115.641348 229 39939ft 424kts
12-Sep-17 16:46 35.346152 -115.737755 228 39946ft 424kts
12-Sep-17 16:47 35.266924 -115.843081 228 39950ft 423kts
12-Sep-17 16:48 35.188516 -115.946464 228 37939ft 411kts
12-Sep-17 16:49 35.111036 -116.047708 228 35902ft 410kts
12-Sep-17 16:50 35.033015 -116.149458 227 33825ft 416kts
12-Sep-17 16:51 34.953428 -116.253090 227 31675ft 422kts
12-Sep-17 16:52 34.877123 -116.352844 226 29559ft 427kts
12-Sep-17 16:53 34.797706 -116.458852 226 27349ft 421kts
12-Sep-17 16:54 34.717436 -116.557542 224 25223ft 410kts
12-Sep-17 16:55 34.638765 -116.652836 223 23137ft 400kts
12-Sep-17 16:56 34.563959 -116.744044 223 20883ft 392kts
12-Sep-17 16:57 34.488649 -116.836007 223 18681ft 382kts
12-Sep-17 16:58 34.415899 -116.927152 223 16706ft 373kts
12-Sep-17 16:59 34.344406 -117.014923 223 14662ft 365kts
12-Sep-17 17:00 34.274181 -117.100161 223 12588ft 355kts
12-Sep-17 17:01 34.212628 -117.175580 223 11886ft 274kts
12-Sep-17 17:02 34.169917 -117.245396 251 9949ft 269kts
12-Sep-17 17:03 34.152822 -117.331016 252 7910ft 262kts
12-Sep-17 17:04 34.135137 -117.408390 252 6793ft 232kts
12-Sep-17 17:05 34.117413 -117.478457 252 6002ft 216kts
12-Sep-17 17:06 34.071942 -117.496615 135 4904ft 231kts
12-Sep-17 17:07 34.074782 -117.423168 76 4214ft 230kts
12-Sep-17 17:08 34.064547 -117.349286 94 3917ft 219kts
12-Sep-17 17:09 34.080323 -117.288748 66 2813ft 170kts
12-Sep-17 17:10 34.093938 -117.239416 70 1114ft 115kts
12-Sep-17 17:11 34.098960 -117.226753 40 1147ft 0kts
12-Sep-17 17:12 34.099504 -117.226744 320 1147ft 9kts
12-Sep-17 17:13 34.101985 -117.236688 285 1124ft 41kts
12-Sep-17 17:14 34.103700 -117.245593 285 1106ft 12kts
12-Sep-17 17:15 34.103767 -117.245880 286 1106ft 0kts
12-Sep-17 17:16 34.103767 -117.245880 286 1106ft 0kts
12-Sep-17 17:17 34.103767 -117.245880 286 1106ft 0kts
12-Sep-17 17:18 34.103767 -117.245880 286 1106ft 0kts
12-Sep-17 17:19 34.103767 -117.245880 286 1106ft 0kts
12-Sep-17 17:20 34.103767 -117.245880 286 1106ft 0kts
12-Sep-17 17:21 34.103767 -117.245880 286 1106ft 0kts
12-Sep-17 17:22 34.103767 -117.245880 286 1106ft 0kts
12-Sep-17 17:23 34.103767 -117.245880 286 1106ft 0kts
12-Sep-17 17:24 34.103767 -117.245880 286 1106ft 0kts
12-Sep-17 17:25 34.103767 -117.245880 286 1106ft 0kts

Navigation Log

Ident Type
Flight plan parsing failed, navigation log unavailable